createdAt,value
2023-03-16T00:00:33.918Z,100910.84
2023-03-16T00:05:36.704Z,100913.97
2023-03-16T00:10:46.624Z,100918.44
2023-03-16T00:15:51.027Z,100921.34
2023-03-16T00:20:55.331Z,100917.16
2023-03-16T00:26:02.027Z,100921.97
2023-03-16T00:31:05.103Z,100923.97
2023-03-16T00:36:09.381Z,100919.75
2023-03-16T00:41:14.856Z,100920.94
2023-03-16T00:46:18.436Z,100919.44
2023-03-16T00:51:22.848Z,100925.31
2023-03-16T00:56:29.021Z,100930.31
2023-03-16T01:01:32.789Z,100942.28
2023-03-16T01:06:35.672Z,100936.66
2023-03-16T01:11:42.917Z,100943.41
2023-03-16T01:16:46.422Z,100940.25
2023-03-16T01:21:49.358Z,100937.22
2023-03-16T01:26:54.423Z,100929.66
2023-03-16T01:31:57.702Z,100930.94
2023-03-16T01:37:00.928Z,100929.66
2023-03-16T01:42:17.207Z,100931.84
2023-03-16T01:47:20.067Z,100927.72
2023-03-16T01:52:24.396Z,100930.50
2023-03-16T01:57:30.535Z,100930.72
2023-03-16T02:02:33.449Z,100929.00
2023-03-16T02:07:39.100Z,100920.28
2023-03-16T02:12:43.726Z,100915.88
2023-03-16T02:17:48.434Z,100918.88
2023-03-16T02:22:55.061Z,100923.34
2023-03-16T02:28:04.069Z,100919.13
2023-03-16T02:33:09.551Z,100913.00
2023-03-16T02:38:12.387Z,100921.16
2023-03-16T02:43:23.431Z,100919.34
2023-03-16T02:48:45.375Z,100918.56
2023-03-16T02:53:48.210Z,100940.09
2023-03-16T02:58:51.664Z,100926.78
2023-03-16T03:03:57.753Z,100927.84
2023-03-16T03:09:01.952Z,100927.06
2023-03-16T03:14:05.371Z,100935.31
2023-03-16T03:19:09.767Z,100937.19
2023-03-16T03:24:13.922Z,100944.38
2023-03-16T03:29:16.705Z,100941.69
2023-03-16T03:34:20.834Z,100946.28
2023-03-16T03:39:23.676Z,100955.16
2023-03-16T03:44:27.707Z,100950.00
2023-03-16T03:49:32.805Z,100954.59
2023-03-16T03:54:35.881Z,100947.44
2023-03-16T03:59:43.899Z,100944.75
2023-03-16T04:05:17.346Z,100942.19
2023-03-16T04:10:21.664Z,100944.84
2023-03-16T04:15:24.515Z,100938.66
2023-03-16T04:20:49.073Z,100934.31
2023-03-16T04:25:56.045Z,100935.28
2023-03-16T04:31:02.513Z,100938.91
2023-03-16T04:36:12.065Z,100934.41
2023-03-16T04:41:15.625Z,100937.00
2023-03-16T04:46:27.297Z,100940.63
2023-03-16T04:51:32.262Z,100936.22
2023-03-16T04:56:44.364Z,100930.22
2023-03-16T05:02:01.406Z,100935.72
2023-03-16T05:07:05.723Z,100941.00
2023-03-16T05:12:13.369Z,100938.50
2023-03-16T05:17:16.632Z,100942.03
2023-03-16T05:22:23.490Z,100947.59
2023-03-16T05:27:53.880Z,100954.84
2023-03-16T05:33:21.540Z,100961.22
2023-03-16T05:38:29.558Z,100964.00
2023-03-16T05:43:34.394Z,100952.44
2023-03-16T05:48:37.481Z,100964.09
2023-03-16T05:53:42.863Z,100967.72
2023-03-16T05:58:53.829Z,100972.97
2023-03-16T06:03:58.052Z,100978.34
2023-03-16T06:09:05.185Z,100974.78
2023-03-16T06:14:08.519Z,100980.16
2023-03-16T06:19:12.609Z,100976.41
2023-03-16T06:24:17.303Z,100979.28
2023-03-16T06:29:20.693Z,100986.34
2023-03-16T06:34:23.646Z,100992.47
2023-03-16T06:39:27.988Z,100995.09
2023-03-16T06:44:31.301Z,100984.38
2023-03-16T06:49:44.292Z,100987.91
2023-03-16T06:54:58.428Z,100995.94
2023-03-16T07:00:03.981Z,100994.19
2023-03-16T07:05:07.455Z,100990.66
2023-03-16T07:10:13.640Z,100995.94
2023-03-16T07:15:16.639Z,100996.88
2023-03-16T07:20:21.680Z,100996.72
2023-03-16T07:25:27.048Z,100989.53
2023-03-16T07:30:31.207Z,100986.78
2023-03-16T07:35:34.735Z,100995.66
2023-03-16T07:40:40.321Z,100991.06
2023-03-16T07:45:50.166Z,100995.47
2023-03-16T07:50:54.256Z,101005.50
2023-03-16T07:55:59.916Z,100998.38
2023-03-16T08:01:02.942Z,101009.63
2023-03-16T08:06:06.247Z,101021.69
2023-03-16T08:11:11.141Z,101010.84
2023-03-16T08:16:25.066Z,101017.50
2023-03-16T08:21:28.361Z,101018.03
2023-03-16T08:26:32.597Z,101013.94
2023-03-16T08:31:35.571Z,101011.25
2023-03-16T08:36:46.720Z,101014.25
2023-03-16T08:41:52.136Z,101015.59
2023-03-16T08:47:05.171Z,101022.75
2023-03-16T08:52:10.345Z,101023.06
2023-03-16T08:57:14.497Z,101025.19
2023-03-16T09:02:17.376Z,101020.50
2023-03-16T09:07:20.433Z,101027.66
2023-03-16T09:12:25.018Z,101030.19
2023-03-16T09:17:28.531Z,101026.81
2023-03-16T09:22:31.423Z,101030.28
2023-03-16T09:27:36.600Z,101022.31
2023-03-16T09:32:39.506Z,101015.22
2023-03-16T09:37:45.361Z,101016.94
2023-03-16T09:43:03.674Z,101023.25
2023-03-16T09:48:09.277Z,101010.84
2023-03-16T09:53:17.289Z,101019.72
2023-03-16T09:58:22.347Z,101022.25
2023-03-16T10:04:05.195Z,101015.94
2023-03-16T10:14:54.288Z,101019.38
2023-03-16T10:19:58.731Z,101012.19
2023-03-16T10:25:05.442Z,101003.97
2023-03-16T10:30:19.887Z,101007.41
2023-03-16T10:35:41.911Z,100999.06
2023-03-16T10:40:44.661Z,101004.53
2023-03-16T10:45:49.907Z,100998.25
2023-03-16T10:50:53.619Z,100992.03
2023-03-16T10:55:58.743Z,100984.47
2023-03-16T11:01:03.498Z,100985.81
2023-03-16T11:06:07.525Z,100975.31
2023-03-16T11:11:11.823Z,100973.22
2023-03-16T11:16:24.541Z,100963.03
2023-03-16T11:21:36.203Z,100952.81
2023-03-16T11:26:40.931Z,100953.56
2023-03-16T11:31:49.418Z,100949.06
2023-03-16T11:36:54.632Z,100943.69
2023-03-16T11:42:02.354Z,100935.00
2023-03-16T11:47:13.842Z,100933.94
2023-03-16T11:52:20.575Z,100919.88
2023-03-16T11:57:32.683Z,100926.91
2023-03-16T12:02:47.445Z,100915.59
2023-03-16T12:07:54.706Z,100913.25
2023-03-16T12:13:03.310Z,100906.66
2023-03-16T12:18:13.096Z,100889.38
2023-03-16T12:23:22.518Z,100877.38
2023-03-16T12:28:25.875Z,100868.03
2023-03-16T12:33:37.152Z,100863.13
2023-03-16T12:38:44.476Z,100861.13
2023-03-16T12:43:57.417Z,100850.09
2023-03-16T12:49:02.176Z,100844.28
2023-03-16T12:54:06.197Z,100843.00
2023-03-16T12:59:11.565Z,100829.16
2023-03-16T13:04:17.176Z,100825.19
2023-03-16T13:09:22.762Z,100821.09
2023-03-16T13:14:38.258Z,100809.94
2023-03-16T13:19:44.986Z,100808.53
2023-03-16T13:24:52.612Z,100801.00
2023-03-16T13:29:59.325Z,100811.09
2023-03-16T13:35:03.532Z,100804.94
2023-03-16T13:40:19.510Z,100791.50
2023-03-16T13:45:23.863Z,100799.00
2023-03-16T13:50:28.223Z,100796.16
2023-03-16T13:55:32.866Z,100792.88
2023-03-16T14:00:36.959Z,100792.00
2023-03-16T14:05:41.789Z,100798.28
2023-03-16T14:10:45.116Z,100792.19
2023-03-16T14:15:47.927Z,100787.03
2023-03-16T14:20:53.222Z,100782.09
2023-03-16T14:25:56.086Z,100774.88
2023-03-16T14:31:03.968Z,100752.88
2023-03-16T14:36:18.742Z,100739.69
2023-03-16T14:41:24.133Z,100736.72
2023-03-16T14:46:29.667Z,100723.63
2023-03-16T14:51:34.919Z,100730.28
2023-03-16T14:56:38.229Z,100709.94
2023-03-16T15:01:41.243Z,100698.91
2023-03-16T15:06:45.585Z,100691.78
2023-03-16T15:11:49.115Z,100684.63
2023-03-16T15:16:52.553Z,100683.59
2023-03-16T15:21:57.939Z,100677.22
2023-03-16T15:27:00.989Z,100664.56
2023-03-16T15:32:04.273Z,100673.84
2023-03-16T15:37:12.306Z,100673.91
2023-03-16T15:42:16.557Z,100676.59
2023-03-16T15:47:19.644Z,100669.28
2023-03-16T15:52:27.561Z,100679.66
2023-03-16T15:57:31.334Z,100673.09
2023-03-16T16:02:34.224Z,100663.69
2023-03-16T16:07:38.721Z,100657.81
2023-03-16T16:12:41.529Z,100663.34
2023-03-16T16:18:01.066Z,100670.44
2023-03-16T16:23:10.414Z,100661.47
2023-03-16T16:28:15.007Z,100650.97
2023-03-16T16:33:25.368Z,100655.88
2023-03-16T16:38:30.129Z,100632.59
2023-03-16T16:43:34.632Z,100644.97
2023-03-16T16:48:38.907Z,100645.41
2023-03-16T16:53:43.045Z,100650.66
2023-03-16T16:58:46.226Z,100646.59
2023-03-16T17:03:49.049Z,100657.31
2023-03-16T17:08:55.024Z,100649.09
2023-03-16T17:13:59.329Z,100641.16
2023-03-16T17:19:02.375Z,100639.91
2023-03-16T17:24:07.760Z,100636.09
2023-03-16T17:29:14.387Z,100643.50
2023-03-16T17:34:18.304Z,100646.88
2023-03-16T17:39:23.554Z,100654.75
2023-03-16T17:44:34.162Z,100639.13
2023-03-16T17:49:36.981Z,100644.91
2023-03-16T17:54:41.096Z,100638.03
2023-03-16T17:59:43.891Z,100626.38
2023-03-16T18:04:46.745Z,100618.06
2023-03-16T18:09:50.967Z,100640.09
2023-03-16T18:14:58.458Z,100628.75
2023-03-16T18:20:01.332Z,100643.47
2023-03-16T18:25:10.540Z,100637.59
2023-03-16T18:30:14.142Z,100637.16
2023-03-16T18:35:17.031Z,100631.13
2023-03-16T18:40:21.437Z,100620.72
2023-03-16T18:45:24.446Z,100612.06
2023-03-16T18:50:28.687Z,100598.94
2023-03-16T18:55:33.020Z,100600.28
2023-03-16T19:00:36.142Z,100618.38
2023-03-16T19:05:39.498Z,100616.91
2023-03-16T19:10:46.932Z,100613.47
2023-03-16T19:15:50.056Z,100631.69
2023-03-16T19:20:53.152Z,100625.78
2023-03-16T19:25:58.302Z,100637.19
2023-03-16T19:31:01.316Z,100636.84
2023-03-16T19:36:04.717Z,100613.47
2023-03-16T19:41:20.348Z,100620.84
2023-03-16T19:46:23.238Z,100626.50
2023-03-16T19:51:29.052Z,100617.19
2023-03-16T19:56:33.489Z,100613.44
2023-03-16T20:01:36.355Z,100618.16
2023-03-16T20:06:39.210Z,100616.00
2023-03-16T20:11:43.332Z,100604.97
2023-03-16T20:16:47.978Z,100606.69
2023-03-16T20:21:50.873Z,100598.50
2023-03-16T20:26:55.039Z,100602.47
2023-03-16T20:31:57.879Z,100600.63
2023-03-16T20:37:01.135Z,100593.44
2023-03-16T20:42:05.781Z,100584.09
2023-03-16T20:47:11.372Z,100579.34
2023-03-16T20:52:17.204Z,100574.97
2023-03-16T20:57:22.687Z,100559.47
2023-03-16T21:02:43.037Z,100559.28
2023-03-16T21:07:46.001Z,100559.03
2023-03-16T21:12:51.112Z,100554.53
2023-03-16T21:17:57.036Z,100561.59
2023-03-16T21:22:59.944Z,100555.25
2023-03-16T21:28:04.999Z,100557.09
2023-03-16T21:33:13.243Z,100556.09
2023-03-16T21:38:17.031Z,100538.91
2023-03-16T21:43:21.344Z,100541.50
2023-03-16T21:48:25.859Z,100542.34
2023-03-16T21:53:30.926Z,100527.72
2023-03-16T21:58:35.220Z,100522.00
2023-03-16T22:03:50.599Z,100519.22
2023-03-16T22:08:54.026Z,100508.34
2023-03-16T22:13:58.888Z,100499.19
2023-03-16T22:19:01.917Z,100503.47
2023-03-16T22:24:05.788Z,100495.19
2023-03-16T22:29:25.235Z,100487.16
2023-03-16T22:34:30.296Z,100488.84
2023-03-16T22:39:36.086Z,100488.72
2023-03-16T22:44:40.266Z,100482.38
2023-03-16T22:49:43.096Z,100480.56
2023-03-16T22:54:46.085Z,100477.75
2023-03-16T22:59:50.337Z,100474.06
2023-03-16T23:04:53.298Z,100467.75
2023-03-16T23:09:56.658Z,100460.78
2023-03-16T23:15:01.021Z,100460.91
2023-03-16T23:20:04.167Z,100451.25
2023-03-16T23:25:07.965Z,100438.94
2023-03-16T23:30:20.749Z,100435.63
2023-03-16T23:35:24.804Z,100434.88
2023-03-16T23:40:29.083Z,100426.09
2023-03-16T23:45:34.734Z,100412.91
2023-03-16T23:50:37.643Z,100408.28
2023-03-16T23:55:41.155Z,100402.06
